KPOB/POB METAR and TAF weather

Enter ICAO airport designator
Station Type Date Time Source
KPOB METAR 2018/12/17 02:34 UTC NOAA

KPOB 170234Z AUTO 29007KT 10SM CLR 10/06 A3000 RMK AO2 SLP162 $


Station Type Date Time Source
KPOB Decoded METAR 2018/12/17 02:34 UTC NOAA

Pope Air Force Base, NC, United States (KPOB) 35-10N 079-02W 61M
Dec 16, 2018 - 09:34 PM EST / 2018.12.17 0234 UTC
Wind: from the WNW (290 degrees) at 8 MPH (7 KT):0
Visibility: 10 mile(s):0
Sky conditions: clear
Temperature: 50 F (10 C)
Dew Point: 42 F (6 C)
Relative Humidity: 76%
Pressure (altimeter): 30 in. Hg (1015 hPa)
ob: KPOB 170234Z AUTO 29007KT 10SM CLR 10/06 A3000 RMK AO2 SLP162
cycle: 2

Station Type Date Time Source
KPOB TAF 2018/12/17 02:11 UTC NOAA

TAF KPOB 170200Z 1702/1808 30006KT 9999 FEW015 QNH2996INS
BECMG 1715/1716 28010G15KT 9999 SKC QNH2996INS
BECMG 1721/1722 28006KT 9999 SKC QNH2998INS TX17/1721Z TN05/1712Z


Example: see airport list